KDMN/DMN METAR and TAF weather

Enter ICAO airport designator
Station Type Date Time Source
KDMN METAR 2020/07/13 12:53 UTC NOAA

KDMN 131253Z AUTO 22006KT 10SM CLR 24/06 A3005 RMK AO2 SLP080 T02440061 $


Station Type Date Time Source
KDMN Decoded METAR 2020/07/13 12:53 UTC NOAA

DEMING MUNICIPAL AIRPORT, NM, United States (KDMN) 32-16N 107-43W 1311M
Jul 13, 2020 - 08:53 AM EDT / 2020.07.13 1253 UTC
Wind: from the SW (220 degrees) at 7 MPH (6 KT):0
Visibility: 10 mile(s):0
Sky conditions: clear
Temperature: 75.9 F (24.4 C)
Dew Point: 43.0 F (6.1 C)
Relative Humidity: 30%
Pressure (altimeter): 30.05 in. Hg (1017 hPa)
ob: KDMN 131253Z AUTO 22006KT 10SM CLR 24/06 A3005 RMK AO2 SLP080 T02440061
cycle: 13

Station Type Date Time Source
KDMN TAF 2020/07/13 12:39 UTC NOAA

TAF KDMN 131136Z 1312/1412 24007KT P6SM FEW150
FM131900 25010G20KT P6SM SCT140
FM140300 29010KT P6SM SCT150

Example: see airport list